Time;durP1;ratioP1;P1;durP2;ratioP2;P2;SDS_P1;SDS_P2;PMS_P1;PMS_P2;Temp;Humidity;BMP_temperature;BMP_pressure;BME280_temperature;BME280_humidity;BME280_pressure;Samples;Min_cycle;Max_cycle;Signal;HPM_P1;HPM_P2
2022/01/23 00:00:07;;;;;;;107.45;39.85;;;;;;;6.69;100.00;102507.03;8396970;28;20435;-63
2022/01/23 00:04:07;;;;;;;101.20;38.42;;;;;;;6.70;100.00;102506.97;8390530;28;20032;-63
2022/01/23 00:08:09;;;;;;;95.78;37.97;;;;;;;6.66;100.00;102516.13;8397016;28;20488;-63
2022/01/23 00:12:15;;;;;;;92.13;37.80;;;;;;;6.66;100.00;102510.75;8398629;28;20039;-63
2022/01/23 00:17:24;;;;;;;94.60;38.03;;;;;;;6.62;100.00;102506.41;8383864;28;20039;-63
2022/01/23 00:20:35;;;;;;;98.15;37.90;;;;;;;6.64;100.00;102519.78;8400481;28;20032;-63
2022/01/23 00:30:30;;;;;;;95.05;37.03;;;;;;;6.58;100.00;102523.63;8406243;28;20089;-63
2022/01/23 00:33:17;;;;;;;105.20;39.90;;;;;;;6.62;100.00;102529.75;8432397;28;20036;-63
2022/01/23 00:37:19;;;;;;;107.00;39.78;;;;;;;6.63;100.00;102521.63;8412540;28;20105;-63
2022/01/23 00:41:19;;;;;;;102.78;37.92;;;;;;;6.62;100.00;102522.53;8431452;28;20522;-63
2022/01/23 00:45:42;;;;;;;99.35;40.40;;;;;;;6.58;100.00;102510.19;8383896;28;20444;-63
2022/01/23 00:49:40;;;;;;;105.38;39.47;;;;;;;6.55;100.00;102510.31;8380557;28;20044;-63
2022/01/23 00:53:40;;;;;;;108.80;40.88;;;;;;;6.54;100.00;102502.31;8400688;28;20028;-63
2022/01/23 00:57:41;;;;;;;93.97;37.50;;;;;;;6.56;100.00;102497.78;8399143;28;20483;-63
2022/01/23 01:01:41;;;;;;;110.40;41.22;;;;;;;6.56;100.00;102504.00;8381606;28;20093;-63
2022/01/23 01:05:42;;;;;;;100.45;39.95;;;;;;;6.55;100.00;102496.88;8397499;28;20056;-63
2022/01/23 01:09:48;;;;;;;105.53;40.28;;;;;;;6.57;100.00;102495.00;8404024;28;20135;-63
2022/01/23 01:14:20;;;;;;;96.93;38.75;;;;;;;6.55;100.00;102480.75;8405807;28;20028;-63
2022/01/23 01:31:22;;;;;;;100.35;39.05;;;;;;;6.59;100.00;102486.88;8406402;28;20584;-63
2022/01/23 01:35:28;;;;;;;105.72;38.47;;;;;;;6.58;100.00;102480.63;8389238;28;20056;-63
2022/01/23 01:39:28;;;;;;;98.90;39.53;;;;;;;6.61;100.00;102495.72;8381877;28;20048;-63
2022/01/23 01:43:29;;;;;;;92.88;37.92;;;;;;;6.55;100.00;102488.81;8403794;28;20066;-63
2022/01/23 01:47:29;;;;;;;101.72;38.33;;;;;;;6.61;100.00;102491.25;8392559;28;20041;-63
2022/01/23 01:51:32;;;;;;;98.55;38.00;;;;;;;6.59;100.00;102495.81;8394144;28;20440;-63
2022/01/23 01:55:40;;;;;;;92.70;36.28;;;;;;;6.56;100.00;102504.00;8403279;28;20391;-63
2022/01/23 02:08:25;;;;;;;94.85;38.03;;;;;;;6.59;100.00;102508.38;8393081;28;22036;-63
2022/01/23 02:14:15;;;;;;;98.07;38.72;;;;;;;6.59;100.00;102509.25;8385204;28;20385;-63
2022/01/23 02:17:27;;;;;;;105.82;39.83;;;;;;;6.56;100.00;102512.06;8362807;28;20052;-63
2022/01/23 02:50:32;;;;;;;108.50;41.95;;;;;;;6.51;100.00;102503.34;8361092;28;20493;-63
2022/01/23 02:56:06;;;;;;;113.38;42.28;;;;;;;6.40;100.00;102485.94;8328035;28;20409;-62
2022/01/23 03:00:12;;;;;;;114.65;40.53;;;;;;;6.34;100.00;102486.22;8328615;28;20057;-63
2022/01/23 03:04:13;;;;;;;112.60;41.95;;;;;;;6.31;100.00;102495.25;8351124;28;20046;-63
2022/01/23 03:08:25;;;;;;;103.50;39.67;;;;;;;6.32;100.00;102488.97;8361975;28;20437;-63
2022/01/23 03:13:53;;;;;;;116.07;42.78;;;;;;;6.31;100.00;102487.19;8354196;28;20033;-63
2022/01/23 03:30:16;;;;;;;98.60;39.33;;;;;;;6.34;100.00;102460.19;8305469;28;20072;-63
2022/01/23 03:34:08;;;;;;;110.32;39.60;;;;;;;6.34;100.00;102460.19;8305408;28;20107;-63
2022/01/23 03:38:08;;;;;;;113.00;41.42;;;;;;;6.36;100.00;102469.06;8299429;28;20124;-63
2022/01/23 03:42:09;;;;;;;112.93;40.10;;;;;;;6.37;100.00;102476.19;8292344;28;20097;-63
2022/01/23 03:47:20;;;;;;;112.35;41.20;;;;;;;6.36;100.00;102474.44;8304515;28;20038;-63
2022/01/23 03:50:31;;;;;;;114.90;42.92;;;;;;;6.37;100.00;102475.34;8331816;28;20395;-63
2022/01/23 03:54:32;;;;;;;111.95;42.75;;;;;;;6.37;100.00;102476.19;8319035;28;20508;-63
2022/01/23 03:58:34;;;;;;;107.75;40.03;;;;;;;6.38;100.00;102488.69;8304057;28;20038;-63
2022/01/23 04:02:34;;;;;;;107.38;39.53;;;;;;;6.43;100.00;102491.19;8308287;28;20063;-63
2022/01/23 04:06:35;;;;;;;99.00;39.22;;;;;;;6.43;100.00;102497.41;8336465;28;20037;-63
2022/01/23 04:10:36;;;;;;;101.15;40.60;;;;;;;6.43;100.00;102491.19;8337886;28;20397;-63
2022/01/23 04:14:42;;;;;;;101.70;38.88;;;;;;;6.32;100.00;102480.91;8334794;28;20037;-63
2022/01/23 04:19:31;;;;;;;101.00;39.65;;;;;;;6.37;100.00;102500.34;8335865;28;20029;-63
2022/01/23 04:31:53;;;;;;;113.97;40.95;;;;;;;6.38;100.00;102502.13;8303627;28;20097;-63
2022/01/23 04:45:38;;;;;;;111.03;41.78;;;;;;;6.37;100.00;102508.41;8302414;28;20042;-63
2022/01/23 04:59:32;;;;;;;112.15;40.88;;;;;;;6.36;100.00;102512.06;8319600;28;20033;-63
2022/01/23 05:02:22;;;;;;;110.20;40.67;;;;;;;6.35;100.00;102504.94;8336304;28;20041;-63
2022/01/23 05:06:25;;;;;;;102.38;40.42;;;;;;;6.37;100.00;102510.25;8334948;28;20079;-63
2022/01/23 05:10:26;;;;;;;109.85;39.25;;;;;;;6.37;100.00;102512.94;8335104;28;20033;-63
2022/01/23 05:14:32;;;;;;;106.32;39.17;;;;;;;6.39;100.00;102506.56;8334201;28;20040;-62
2022/01/23 05:18:35;;;;;;;112.40;41.13;;;;;;;6.35;100.00;102499.56;8320423;28;20129;-63
2022/01/23 05:22:41;;;;;;;108.35;40.40;;;;;;;6.31;100.00;102503.31;8333241;28;20037;-63
2022/01/23 05:26:44;;;;;;;103.90;38.63;;;;;;;6.24;100.00;102501.81;8335395;28;20065;-62
2022/01/23 05:30:45;;;;;;;105.47;38.47;;;;;;;6.23;100.00;102499.22;8335607;28;20368;-63
2022/01/23 05:34:47;;;;;;;107.53;41.47;;;;;;;6.29;100.00;102507.00;8331013;28;20402;-63
2022/01/23 05:38:47;;;;;;;103.50;38.47;;;;;;;6.29;100.00;102505.22;8313244;28;20041;-63
2022/01/23 05:42:48;;;;;;;108.82;39.55;;;;;;;6.26;100.00;102502.66;8288269;28;20057;-63
2022/01/23 05:46:48;;;;;;;108.80;38.80;;;;;;;6.30;100.00;102516.81;8334779;28;20093;-63
2022/01/23 05:50:49;;;;;;;95.95;36.95;;;;;;;6.27;100.00;102516.94;8335535;28;20060;-63
2022/01/23 05:54:49;;;;;;;104.68;38.47;;;;;;;6.21;100.00;102515.38;8334569;28;20041;-63
2022/01/23 05:58:50;;;;;;;105.35;39.97;;;;;;;6.21;100.00;102519.88;8334126;28;20041;-62
2022/01/23 06:02:51;;;;;;;106.18;39.13;;;;;;;6.20;100.00;102521.72;8335240;28;20041;-63
2022/01/23 06:06:55;;;;;;;114.72;41.65;;;;;;;6.22;100.00;102518.97;8336504;28;20311;-63
2022/01/23 06:10:57;;;;;;;120.22;41.17;;;;;;;6.23;100.00;102524.25;8320076;28;20551;-63
2022/01/23 06:14:57;;;;;;;125.45;42.90;;;;;;;6.10;100.00;102528.38;8334571;28;20465;-63
2022/01/23 06:18:57;;;;;;;115.13;40.80;;;;;;;6.08;100.00;102522.22;8338595;28;20062;-63
2022/01/23 06:22:58;;;;;;;118.97;40.58;;;;;;;6.07;100.00;102520.44;8334029;28;20039;-63
2022/01/23 06:27:01;;;;;;;116.90;42.13;;;;;;;6.05;100.00;102522.34;8331386;28;20099;-63
2022/01/23 06:31:01;;;;;;;120.47;42.15;;;;;;;6.04;100.00;102520.59;8333051;28;20337;-63
2022/01/23 06:35:02;;;;;;;130.05;44.05;;;;;;;5.99;100.00;102523.47;8332435;28;20088;-63
2022/01/23 06:39:05;;;;;;;137.18;43.85;;;;;;;6.03;100.00;102526.88;8333367;28;20049;-63
2022/01/23 06:43:05;;;;;;;130.55;41.53;;;;;;;6.01;100.00;102532.31;8332939;28;20045;-62
2022/01/23 06:47:06;;;;;;;126.72;41.40;;;;;;;5.98;100.00;102531.59;8333812;28;20045;-63
2022/01/23 06:51:07;;;;;;;117.32;41.30;;;;;;;6.01;100.00;102536.84;8327307;28;20130;-63
2022/01/23 06:55:07;;;;;;;116.22;40.47;;;;;;;5.97;100.00;102540.56;8340075;28;20048;-63
2022/01/23 06:59:08;;;;;;;133.25;43.10;;;;;;;5.95;100.00;102553.19;8328816;28;20072;-63
2022/01/23 07:03:10;;;;;;;124.50;41.85;;;;;;;6.04;100.00;102563.56;8338465;28;20055;-63
2022/01/23 07:07:10;;;;;;;122.20;42.05;;;;;;;6.05;100.00;102554.56;8339206;28;20045;-63
2022/01/23 07:11:11;;;;;;;124.07;43.47;;;;;;;6.00;100.00;102553.84;8338818;28;20288;-63
2022/01/23 07:15:11;;;;;;;125.95;42.67;;;;;;;6.07;100.00;102552.66;8338385;28;20037;-63
2022/01/23 07:19:12;;;;;;;132.82;42.80;;;;;;;6.00;100.00;102552.06;8337935;28;20044;-63
2022/01/23 07:23:13;;;;;;;129.40;43.60;;;;;;;6.02;100.00;102552.00;8337787;28;20534;-63
2022/01/23 07:27:18;;;;;;;136.27;45.13;;;;;;;6.04;100.00;102559.03;8336762;28;20044;-63
2022/01/23 07:31:42;;;;;;;123.10;41.97;;;;;;;6.07;100.00;102563.41;8314703;28;20547;-63
2022/01/23 07:35:39;;;;;;;112.88;40.08;;;;;;;6.05;100.00;102557.25;8315014;28;20048;-63
2022/01/23 07:39:40;;;;;;;111.70;40.55;;;;;;;6.11;100.00;102553.41;8331791;28;20512;-63
2022/01/23 07:43:40;;;;;;;126.53;42.20;;;;;;;6.15;100.00;102555.03;8293731;28;20034;-63
2022/01/23 07:47:40;;;;;;;135.25;43.53;;;;;;;6.16;100.00;102557.66;8323170;28;20041;-63
2022/01/23 07:51:41;;;;;;;113.97;39.95;;;;;;;6.20;100.00;102564.69;8336116;28;20040;-63
2022/01/23 07:55:41;;;;;;;107.10;40.22;;;;;;;6.24;100.00;102570.78;8316416;28;20037;-63
2022/01/23 07:59:42;;;;;;;106.47;37.70;;;;;;;6.29;100.00;102574.16;8323812;28;20041;-63
2022/01/23 08:03:42;;;;;;;98.43;37.25;;;;;;;6.29;100.00;102577.72;8336084;28;20052;-63
2022/01/23 08:07:43;;;;;;;96.50;36.40;;;;;;;6.19;100.00;102594.28;8309113;28;20030;-64
2022/01/23 08:11:43;;;;;;;104.57;34.97;;;;;;;6.11;100.00;102591.00;8313550;28;20394;-63
2022/01/23 08:15:43;;;;;;;111.22;37.25;;;;;;;6.03;100.00;102602.06;8315431;28;20037;-63
2022/01/23 08:19:44;;;;;;;104.88;37.55;;;;;;;6.10;100.00;102606.25;8325958;28;20053;-63
2022/01/23 08:23:44;;;;;;;118.43;40.80;;;;;;;6.17;100.00;102607.78;8304358;28;20034;-63
2022/01/23 08:27:44;;;;;;;130.65;43.90;;;;;;;6.19;100.00;102616.63;8307562;28;20041;-63
2022/01/23 08:31:45;;;;;;;107.78;38.38;;;;;;;6.18;100.00;102614.88;8306668;28;20038;-63
2022/01/23 08:35:45;;;;;;;102.63;35.60;;;;;;;6.14;100.00;102605.22;8317608;28;20034;-63
2022/01/23 08:39:46;;;;;;;120.03;40.58;;;;;;;6.18;100.00;102625.63;8319022;28;20503;-64
2022/01/23 08:43:48;;;;;;;119.97;40.40;;;;;;;6.20;100.00;102623.75;8318816;28;20042;-63
2022/01/23 08:47:49;;;;;;;113.63;39.83;;;;;;;6.23;100.00;102623.63;8316106;28;20038;-64
2022/01/23 08:51:50;;;;;;;117.03;41.25;;;;;;;6.33;100.00;102625.00;8321874;28;20045;-64
2022/01/23 08:55:51;;;;;;;122.47;39.70;;;;;;;6.40;100.00;102625.66;8296827;28;20053;-63
2022/01/23 08:59:52;;;;;;;123.65;42.03;;;;;;;6.43;100.00;102625.53;8298555;28;20034;-63
2022/01/23 09:03:52;;;;;;;120.57;41.45;;;;;;;6.43;100.00;102626.38;8318867;28;20038;-63
2022/01/23 09:07:53;;;;;;;111.55;39.78;;;;;;;6.45;100.00;102621.81;8339264;28;20495;-63
2022/01/23 09:12:42;;;;;;;128.60;46.20;;;;;;;6.46;100.00;102620.88;8400988;28;20044;-63
2022/01/23 09:16:15;;;;;;;136.75;48.90;;;;;;;6.48;100.00;102619.00;8399534;28;20089;-63
2022/01/23 09:20:15;;;;;;;110.47;38.63;;;;;;;6.52;100.00;102617.94;8405073;28;20585;-64
2022/01/23 09:24:19;;;;;;;112.00;40.92;;;;;;;6.58;100.00;102615.00;8410062;28;20364;-63
2022/01/23 09:28:22;;;;;;;105.10;40.83;;;;;;;6.59;100.00;102605.97;8400593;28;20044;-63
2022/01/23 09:32:23;;;;;;;112.20;40.42;;;;;;;6.58;100.00;102614.09;8404553;28;20744;-63
2022/01/23 09:36:24;;;;;;;119.88;42.97;;;;;;;6.60;100.00;102618.50;8430129;28;20038;-64
2022/01/23 09:40:25;;;;;;;101.45;38.22;;;;;;;6.64;100.00;102622.81;8404729;28;20043;-63
2022/01/23 09:44:27;;;;;;;132.93;45.33;;;;;;;6.66;100.00;102629.00;8417708;28;20072;-64
2022/01/23 09:48:28;;;;;;;104.45;37.85;;;;;;;6.65;100.00;102616.47;8409367;28;20347;-64
2022/01/23 09:52:31;;;;;;;109.32;39.38;;;;;;;6.69;100.00;102636.94;8392103;28;20094;-64
2022/01/23 09:56:34;;;;;;;99.47;35.90;;;;;;;6.70;100.00;102633.28;8402974;28;20076;-63
2022/01/23 10:00:34;;;;;;;100.38;37.60;;;;;;;6.66;100.00;102637.06;8394685;28;20063;-64
2022/01/23 10:04:35;;;;;;;101.90;37.75;;;;;;;6.72;100.00;102636.81;8402645;28;20040;-63
2022/01/23 10:08:36;;;;;;;100.88;37.83;;;;;;;6.78;100.00;102639.25;8381968;28;20033;-64
2022/01/23 10:12:40;;;;;;;104.13;39.50;;;;;;;6.78;100.00;102628.47;8398607;28;20037;-63
2022/01/23 10:16:41;;;;;;;100.57;36.95;;;;;;;6.81;100.00;102636.41;8388443;28;20043;-64
2022/01/23 10:20:42;;;;;;;104.57;39.17;;;;;;;6.97;100.00;102639.31;8392540;28;20044;-63
2022/01/23 10:24:42;;;;;;;97.70;38.15;;;;;;;6.96;100.00;102638.47;8412312;27;20040;-63
2022/01/23 10:28:43;;;;;;;100.95;39.25;;;;;;;6.98;100.00;102631.19;8414614;28;20036;-63
2022/01/23 10:32:55;;;;;;;112.18;40.85;;;;;;;6.98;100.00;102641.94;8391534;28;20040;-63
2022/01/23 10:36:56;;;;;;;98.82;37.88;;;;;;;7.09;100.00;102641.47;8409275;28;20040;-64
2022/01/23 10:41:08;;;;;;;95.63;36.30;;;;;;;7.07;100.00;102643.34;8407535;28;20089;-64
2022/01/23 10:47:17;;;;;;;101.22;38.28;;;;;;;7.05;100.00;102635.34;8413482;28;20045;-64
2022/01/23 10:49:52;;;;;;;93.43;35.65;;;;;;;7.12;100.00;102634.16;8417578;28;20047;-63
2022/01/23 10:54:14;;;;;;;94.22;36.85;;;;;;;7.12;100.00;102631.47;8418447;28;20103;-64
2022/01/23 10:58:21;;;;;;;87.55;34.42;;;;;;;7.12;100.00;102626.09;8417150;28;20048;-64
2022/01/23 11:02:25;;;;;;;102.28;35.42;;;;;;;7.26;100.00;102626.34;8412250;28;20105;-64
2022/01/23 11:06:25;;;;;;;85.13;34.00;;;;;;;7.35;100.00;102625.94;8416242;28;20455;-64
2022/01/23 11:10:26;;;;;;;90.43;35.30;;;;;;;7.33;100.00;102617.06;8396272;28;20047;-64
2022/01/23 11:18:47;;;;;;;87.88;32.80;;;;;;;7.38;100.00;102614.16;8394902;28;20051;-64
2022/01/23 11:22:47;;;;;;;80.00;33.60;;;;;;;7.36;100.00;102611.56;8418869;28;20056;-64
2022/01/23 11:27:00;;;;;;;77.70;32.97;;;;;;;7.41;100.00;102614.88;8413452;28;20569;-63
2022/01/23 11:31:00;;;;;;;79.82;32.20;;;;;;;7.46;100.00;102612.00;8414761;28;20032;-63
2022/01/23 11:35:07;;;;;;;82.57;31.25;;;;;;;7.43;100.00;102607.63;8409942;28;20067;-64
2022/01/23 11:39:13;;;;;;;78.43;30.17;;;;;;;7.39;100.00;102606.03;8412720;28;20123;-63
2022/01/23 12:00:40;;;;;;;100.15;36.75;;;;;;;7.45;100.00;102600.38;8295215;28;20938;-63
2022/01/23 12:04:43;;;;;;;112.35;39.35;;;;;;;7.46;100.00;102604.81;8290987;28;20149;-63
2022/01/23 12:08:43;;;;;;;99.30;36.95;;;;;;;7.43;100.00;102596.88;8304520;28;20041;-63
2022/01/23 12:12:47;;;;;;;99.70;36.38;;;;;;;7.38;100.00;102592.66;8301439;28;20317;-63
2022/01/23 12:16:58;;;;;;;94.47;36.08;;;;;;;7.40;100.00;102596.13;8333947;28;20073;-63
2022/01/23 12:20:58;;;;;;;96.72;37.42;;;;;;;7.33;100.00;102587.47;8325370;28;20089;-63
2022/01/23 12:25:11;;;;;;;93.55;36.85;;;;;;;7.41;100.00;102579.91;8320757;28;20379;-63
2022/01/23 12:29:14;;;;;;;88.75;36.53;;;;;;;7.36;100.00;102581.94;8329102;28;20053;-63
2022/01/23 12:33:28;;;;;;;86.85;33.28;;;;;;;7.43;100.00;102574.44;8336885;28;20052;-63
2022/01/23 12:42:10;;;;;;;78.20;32.15;;;;;;;7.40;100.00;102567.41;8396136;27;20375;-64
2022/01/23 12:46:16;;;;;;;84.53;33.83;;;;;;;7.40;100.00;102564.72;8394484;28;20076;-63
2022/01/23 12:50:56;;;;;;;79.03;32.25;;;;;;;7.40;100.00;102562.03;8375189;28;20075;-63
2022/01/23 12:54:58;;;;;;;81.97;33.80;;;;;;;7.35;100.00;102550.59;8373186;28;20052;-63
2022/01/23 12:59:07;;;;;;;83.78;33.35;;;;;;;7.39;100.00;102546.84;8381223;28;20036;-63
2022/01/23 13:03:12;;;;;;;78.50;31.45;;;;;;;7.40;100.00;102548.56;8373967;28;20509;-64
2022/01/23 13:07:22;;;;;;;83.97;33.25;;;;;;;7.43;100.00;102542.16;8354534;28;20115;-63
2022/01/23 13:11:51;;;;;;;78.25;32.72;;;;;;;7.49;100.00;102534.69;8366436;28;20049;-63
2022/01/23 13:16:00;;;;;;;82.30;32.65;;;;;;;7.51;100.00;102529.22;8352596;28;20044;-64
2022/01/23 13:29:57;;;;;;;81.70;32.97;;;;;;;7.54;100.00;102529.09;8338870;28;20045;-63
2022/01/23 13:33:09;;;;;;;81.28;33.28;;;;;;;7.56;100.00;102528.06;8336856;28;20140;-63
2022/01/23 13:37:15;;;;;;;70.15;30.83;;;;;;;7.60;100.00;102534.19;8340398;28;20045;-64
2022/01/23 13:41:24;;;;;;;79.20;31.80;;;;;;;7.53;100.00;102528.19;8365413;28;20133;-64
2022/01/23 13:51:19;;;;;;;83.10;32.50;;;;;;;7.53;100.00;102535.41;8346828;27;20392;-63
2022/01/23 13:58:38;;;;;;;80.80;31.00;;;;;;;7.54;100.00;102534.47;8347206;27;20511;-63
2022/01/23 14:02:43;;;;;;;79.57;31.42;;;;;;;7.60;100.00;102535.03;8312284;28;20060;-63
2022/01/23 14:06:44;;;;;;;75.68;30.92;;;;;;;7.57;100.00;102539.72;8319473;28;20053;-63
2022/01/23 14:10:44;;;;;;;80.55;31.60;;;;;;;7.60;100.00;102534.19;8330691;28;20409;-63
2022/01/23 14:15:03;;;;;;;70.97;29.15;;;;;;;7.60;100.00;102534.19;8318720;28;20039;-63
2022/01/23 14:19:23;;;;;;;68.85;29.65;;;;;;;7.62;100.00;102538.53;8312259;28;20049;-63
2022/01/23 14:23:23;;;;;;;69.30;29.30;;;;;;;7.60;100.00;102531.50;8310385;28;20045;-63
2022/01/23 14:27:24;;;;;;;71.18;29.77;;;;;;;7.63;100.00;102539.44;8319757;28;20071;-63
2022/01/23 14:31:32;;;;;;;72.50;31.27;;;;;;;7.62;100.00;102533.16;8318503;28;20080;-63
2022/01/23 14:35:34;;;;;;;77.60;30.38;;;;;;;7.59;100.00;102536.00;8319113;28;20064;-63
2022/01/23 14:39:35;;;;;;;70.10;27.75;;;;;;;7.62;100.00;102527.78;8345493;28;20053;-63
2022/01/23 14:43:39;;;;;;;74.63;29.00;;;;;;;7.62;100.00;102534.97;8318124;28;20037;-63
2022/01/23 14:47:39;;;;;;;73.07;30.35;;;;;;;7.57;100.00;102529.78;8315838;28;20046;-63
2022/01/23 14:51:40;;;;;;;66.35;29.65;;;;;;;7.57;99.63;102524.41;8318650;28;20688;-63
2022/01/23 14:55:44;;;;;;;73.90;29.20;;;;;;;7.56;99.98;102522.69;8318340;28;20045;-63
2022/01/23 14:59:45;;;;;;;69.47;29.90;;;;;;;7.53;100.00;102517.44;8316472;28;20033;-63
2022/01/23 15:03:52;;;;;;;68.68;28.55;;;;;;;7.53;100.00;102522.81;8318216;28;20038;-63
2022/01/23 15:07:52;;;;;;;64.28;29.70;;;;;;;7.53;100.00;102521.94;8306176;28;20041;-63
2022/01/23 15:11:53;;;;;;;69.55;28.88;;;;;;;7.49;100.00;102526.63;8291897;28;20046;-63
2022/01/23 15:15:55;;;;;;;69.65;31.15;;;;;;;7.51;100.00;102524.69;8264556;28;20568;-63
2022/01/23 15:19:55;;;;;;;74.03;31.25;;;;;;;7.46;100.00;102523.19;8263213;28;20035;-63
2022/01/23 15:23:56;;;;;;;74.63;31.90;;;;;;;7.45;100.00;102518.75;8265609;28;20049;-63
2022/01/23 15:27:56;;;;;;;71.43;29.38;;;;;;;7.42;100.00;102519.78;8265251;28;20042;-63
2022/01/23 15:31:57;;;;;;;70.43;29.98;;;;;;;7.37;100.00;102520.91;8265784;28;20038;-63
2022/01/23 15:35:58;;;;;;;70.75;28.60;;;;;;;7.36;100.00;102524.56;8268400;28;20121;-63
2022/01/23 15:39:58;;;;;;;71.50;30.92;;;;;;;7.29;100.00;102532.03;8294923;28;20034;-63
2022/01/23 15:43:59;;;;;;;75.95;32.53;;;;;;;7.30;100.00;102520.34;8282488;28;20444;-63
2022/01/23 15:47:59;;;;;;;78.03;33.88;;;;;;;7.26;100.00;102516.03;8264166;28;20034;-63
2022/01/23 15:52:00;;;;;;;70.78;32.17;;;;;;;7.25;100.00;102513.41;8296239;28;20033;-63
2022/01/23 15:56:00;;;;;;;73.70;29.73;;;;;;;7.16;100.00;102517.41;8297405;28;20121;-63
2022/01/23 16:00:01;;;;;;;74.15;29.52;;;;;;;7.14;100.00;102516.59;8296808;28;20053;-63
2022/01/23 16:04:02;;;;;;;71.82;31.02;;;;;;;7.14;100.00;102524.66;8282761;28;20041;-63
2022/01/23 16:08:03;;;;;;;72.70;30.00;;;;;;;7.15;100.00;102521.06;8294781;28;20429;-63
2022/01/23 16:12:03;;;;;;;68.45;28.80;;;;;;;7.20;100.00;102528.91;8289355;28;20034;-63
2022/01/23 16:16:04;;;;;;;71.57;29.13;;;;;;;7.17;100.00;102519.13;8272216;28;20042;-63
2022/01/23 16:20:07;;;;;;;65.05;28.17;;;;;;;7.12;100.00;102526.56;8296037;28;20038;-63
2022/01/23 16:24:07;;;;;;;68.32;29.02;;;;;;;7.07;100.00;102523.19;8285211;28;20052;-63
2022/01/23 16:28:08;;;;;;;76.07;29.27;;;;;;;7.04;100.00;102528.72;8282340;28;20743;-63
2022/01/23 16:32:09;;;;;;;66.28;27.38;;;;;;;7.08;100.00;102524.09;8297152;28;20046;-63
2022/01/23 16:36:09;;;;;;;68.15;27.55;;;;;;;7.02;100.00;102525.22;8285724;28;20502;-63
2022/01/23 16:40:10;;;;;;;70.85;28.77;;;;;;;7.02;100.00;102518.97;8286969;28;20046;-63
2022/01/23 16:44:12;;;;;;;72.57;28.27;;;;;;;6.95;100.00;102518.38;8289484;28;20037;-63
2022/01/23 16:48:12;;;;;;;79.03;31.58;;;;;;;6.93;100.00;102514.91;8294163;28;20041;-63
2022/01/23 16:52:12;;;;;;;92.50;38.25;;;;;;;7.00;100.00;102526.22;8294993;28;20096;-63
2022/01/23 16:56:17;;;;;;;78.55;32.28;;;;;;;7.04;100.00;102528.72;8296726;28;20046;-63
2022/01/23 17:00:17;;;;;;;71.70;29.67;;;;;;;6.98;100.00;102526.31;8296351;28;20505;-63
2022/01/23 17:04:18;;;;;;;72.15;29.52;;;;;;;6.96;100.00;102528.22;8295972;28;20033;-62
2022/01/23 17:08:18;;;;;;;73.03;29.45;;;;;;;6.96;100.00;102525.53;8296359;28;20092;-62
2022/01/23 17:12:19;;;;;;;86.55;34.05;;;;;;;6.95;100.00;102523.75;8294840;28;20506;-62
2022/01/23 17:16:19;;;;;;;77.68;29.90;;;;;;;6.93;100.00;102516.69;8295175;28;20124;-62
2022/01/23 17:20:22;;;;;;;81.35;30.80;;;;;;;6.97;100.00;102526.38;8292774;28;20056;-63
2022/01/23 17:24:22;;;;;;;72.20;28.80;;;;;;;6.92;100.00;102518.50;8295458;28;20037;-63
2022/01/23 17:28:23;;;;;;;69.30;30.13;;;;;;;6.89;100.00;102512.41;8293541;28;20057;-62
2022/01/23 17:32:23;;;;;;;83.78;32.00;;;;;;;6.91;100.00;102516.78;8297248;28;20041;-63
2022/01/23 17:36:24;;;;;;;66.80;28.83;;;;;;;6.93;100.00;102514.91;8300086;28;20048;-62
2022/01/23 17:40:24;;;;;;;76.53;30.50;;;;;;;6.90;100.00;102514.16;8318969;28;20042;-62
2022/01/23 17:44:27;;;;;;;75.68;29.58;;;;;;;6.86;100.00;102513.41;8293334;28;20345;-63
2022/01/23 17:48:33;;;;;;;83.38;34.50;;;;;;;6.84;100.00;102509.94;8278479;28;20057;-62
2022/01/23 17:52:33;;;;;;;81.75;31.08;;;;;;;6.76;100.00;102508.50;8289990;28;20038;-63
2022/01/23 17:56:35;;;;;;;84.95;31.45;;;;;;;6.74;100.00;102516.63;8292833;28;20054;-63
2022/01/23 18:00:38;;;;;;;72.97;28.75;;;;;;;6.78;100.00;102515.56;8291583;28;20042;-63
2022/01/23 18:04:39;;;;;;;83.40;31.92;;;;;;;6.60;100.00;102520.88;8293340;28;20041;-62
2022/01/23 18:08:39;;;;;;;53.03;22.50;;;;;;;6.73;98.48;102511.31;8293656;28;21359;-62
2022/01/23 18:12:41;;;;;;;37.55;17.45;;;;;;;6.86;89.68;102512.56;8280025;28;20050;-62
2022/01/23 18:16:41;;;;;;;48.30;21.00;;;;;;;6.97;91.57;102513.81;8259623;28;20054;-63
2022/01/23 18:20:42;;;;;;;56.10;24.83;;;;;;;6.93;94.60;102532.84;8280561;28;20041;-63
2022/01/23 18:24:42;;;;;;;70.50;28.27;;;;;;;6.87;98.86;102531.31;8294712;28;20054;-63
2022/01/23 18:28:43;;;;;;;54.35;24.55;;;;;;;6.85;96.87;102527.78;8293740;28;20044;-63
2022/01/23 18:32:43;;;;;;;42.78;18.48;;;;;;;7.02;89.42;102527.91;8294724;28;20042;-63
2022/01/23 18:36:44;;;;;;;33.17;15.65;;;;;;;7.16;84.54;102521.91;8300695;28;20044;-62
2022/01/23 18:40:44;;;;;;;32.67;16.38;;;;;;;7.23;83.12;102518.84;8327734;28;20029;-62
2022/01/23 18:44:45;;;;;;;32.33;14.82;;;;;;;7.25;83.25;102527.75;8332097;28;20030;-63
2022/01/23 18:48:45;;;;;;;32.08;15.43;;;;;;;7.28;82.24;102527.59;8304750;28;20045;-63
2022/01/23 18:52:58;;;;;;;29.80;14.88;;;;;;;7.22;82.57;102522.50;8299094;28;20045;-62
2022/01/23 18:57:05;;;;;;;35.05;15.98;;;;;;;7.13;84.87;102525.63;8298395;28;20101;-63
2022/01/23 19:01:12;;;;;;;30.00;15.95;;;;;;;7.03;86.37;102520.72;8298668;28;20056;-63
2022/01/23 19:05:19;;;;;;;34.90;15.63;;;;;;;7.02;86.08;102519.84;8296814;28;20429;-63
2022/01/23 19:09:24;;;;;;;35.25;16.48;;;;;;;7.11;84.25;102519.41;8324523;28;20053;-63
2022/01/23 19:13:24;;;;;;;;;;;;;;;7.32;81.46;102518.44;8330213;28;20473;-62
2022/01/23 19:17:25;;;;;;;30.55;13.30;;;;;;;7.19;82.87;102522.66;8332635;28;20362;-63
2022/01/23 19:21:25;;;;;;;33.78;15.70;;;;;;;7.09;84.75;102515.94;8329924;28;20045;-62
2022/01/23 19:25:26;;;;;;;32.33;16.20;;;;;;;7.02;84.70;102511.75;8330735;28;20036;-62
2022/01/23 19:29:30;;;;;;;36.47;16.70;;;;;;;7.00;85.35;102516.34;8331656;28;20587;-63
2022/01/23 19:33:31;;;;;;;;;;;;;;;7.03;85.51;102508.16;8330497;28;20625;-62
2022/01/23 19:37:31;;;;;;;41.70;19.03;;;;;;;6.99;86.04;102503.88;8345781;28;20352;-62
2022/01/23 19:41:37;;;;;;;42.95;19.30;;;;;;;6.97;86.78;102499.47;8364422;28;20675;-62
2022/01/23 19:45:37;;;;;;;42.78;20.02;;;;;;;6.95;87.43;102502.25;8347202;28;20068;-63
2022/01/23 19:49:45;;;;;;;40.47;18.20;;;;;;;7.02;86.45;102500.16;8324141;28;20049;-63
2022/01/23 19:53:46;;;;;;;34.95;17.88;;;;;;;7.01;86.34;102498.38;8330765;28;20106;-62
2022/01/23 19:57:47;;;;;;;47.88;19.17;;;;;;;7.00;86.91;102493.97;8329190;28;20041;-63
2022/01/23 20:01:47;;;;;;;38.97;18.52;;;;;;;6.98;87.26;102499.41;8308310;28;20030;-63
2022/01/23 20:05:50;;;;;;;42.72;18.63;;;;;;;7.01;86.73;102490.31;8304841;28;20473;-63
2022/01/23 20:09:56;;;;;;;40.22;19.05;;;;;;;6.98;87.14;102491.34;8293187;28;20066;-62
2022/01/23 20:13:56;;;;;;;23.75;10.93;;;;;;;7.22;82.52;102483.97;8293598;28;20442;-63
2022/01/23 20:17:57;;;;;;;33.10;15.10;;;;;;;7.22;84.00;102481.28;8291012;28;20046;-62
2022/01/23 20:21:58;;;;;;;33.03;15.85;;;;;;;7.11;85.23;102481.75;8287905;28;20077;-63
2022/01/23 20:25:59;;;;;;;33.00;16.10;;;;;;;7.05;85.78;102481.19;8264187;28;20407;-63
2022/01/23 20:30:00;;;;;;;27.17;11.95;;;;;;;6.95;84.40;102469.97;8282986;28;20101;-63
2022/01/23 20:34:00;;;;;;;22.75;12.30;;;;;;;7.06;83.95;102473.06;8270427;28;20459;-63
2022/01/23 20:38:00;;;;;;;23.10;11.77;;;;;;;7.02;84.23;102471.44;8298591;28;20044;-63
2022/01/23 20:42:01;;;;;;;23.35;10.38;;;;;;;7.03;84.14;102481.25;8296365;28;20038;-63